Time;durP1;ratioP1;P1;durP2;ratioP2;P2;SDS_P1;SDS_P2;PMS_P1;PMS_P2;Temp;Humidity;BMP_temperature;BMP_pressure;BME280_temperature;BME280_humidity;BME280_pressure;Samples;Min_cycle;Max_cycle;Signal;HPM_P1;HPM_P2
2022/09/05 00:01:51;;;;;;;5.40;2.40;;;16.60;64.90;;;;;;5016187;28;20247;-91
2022/09/05 00:04:49;;;;;;;3.53;2.15;;;16.50;65.10;;;;;;4999219;28;20181;-91
2022/09/05 00:07:29;;;;;;;3.58;2.55;;;16.50;65.20;;;;;;4998259;28;20168;-91
2022/09/05 00:10:20;;;;;;;3.72;2.30;;;16.40;65.50;;;;;;4998334;28;20522;-91
2022/09/05 00:12:46;;;;;;;6.85;2.50;;;16.40;65.70;;;;;;4998160;28;20166;-91
2022/09/05 00:15:26;;;;;;;3.85;2.35;;;16.30;65.90;;;;;;4998065;28;20280;-91
2022/09/05 00:18:25;;;;;;;3.83;2.25;;;16.30;66.00;;;;;;4998042;28;20169;-91
2022/09/05 00:21:12;;;;;;;6.97;2.65;;;16.30;66.10;;;;;;4997978;28;20743;-91
2022/09/05 00:23:57;;;;;;;3.72;2.35;;;16.30;66.30;;;;;;4998194;28;20161;-91
2022/09/05 00:26:22;;;;;;;3.28;2.10;;;16.30;66.40;;;;;;4997745;28;20212;-91
2022/09/05 00:28:54;;;;;;;4.97;2.22;;;16.30;66.40;;;;;;4997941;28;20192;-91
2022/09/05 00:31:56;;;;;;;6.68;2.35;;;16.30;66.50;;;;;;4997862;28;20180;-91
2022/09/05 00:34:58;;;;;;;3.45;2.40;;;16.20;66.60;;;;;;4997892;28;20546;-91
2022/09/05 00:37:35;;;;;;;2.58;2.00;;;16.20;66.80;;;;;;4997869;28;20534;-91
2022/09/05 00:40:24;;;;;;;4.68;2.95;;;16.20;66.90;;;;;;4997716;28;20789;-91
2022/09/05 00:42:54;;;;;;;8.93;2.60;;;16.20;67.00;;;;;;4997817;28;20231;-91
2022/09/05 00:45:29;;;;;;;4.03;2.05;;;16.10;67.20;;;;;;4997410;28;20197;-91
2022/09/05 00:48:15;;;;;;;4.13;2.22;;;16.10;67.30;;;;;;4997810;28;20308;-91
2022/09/05 00:51:09;;;;;;;5.22;2.70;;;16.10;67.40;;;;;;4997737;28;20178;-91
2022/09/05 00:54:01;;;;;;;4.25;3.33;;;16.00;67.50;;;;;;5014893;28;20165;-91
2022/09/05 00:57:04;;;;;;;2.90;2.13;;;16.00;67.70;;;;;;4997321;28;20193;-91
2022/09/05 00:59:44;;;;;;;2.95;2.20;;;16.00;67.80;;;;;;4997603;28;20197;-91
2022/09/05 01:02:18;;;;;;;10.57;2.57;;;16.00;67.90;;;;;;4997125;28;20573;-91
2022/09/05 01:04:56;;;;;;;7.17;2.40;;;16.10;67.90;;;;;;4997110;28;20165;-91
2022/09/05 01:07:40;;;;;;;5.27;2.03;;;16.10;67.80;;;;;;4996181;28;20161;-91
2022/09/05 01:10:13;;;;;;;5.27;2.23;;;16.00;67.80;;;;;;4996960;28;20169;-91
2022/09/05 01:13:21;;;;;;;7.45;2.47;;;16.10;67.80;;;;;;4996978;28;20252;-91
2022/09/05 01:16:10;;;;;;;3.97;2.03;;;16.10;67.90;;;;;;4996307;28;20209;-91
2022/09/05 01:18:48;;;;;;;2.50;1.93;;;16.00;67.90;;;;;;4996944;28;20539;-91
2022/09/05 01:21:39;;;;;;;4.13;2.30;;;16.10;67.80;;;;;;4996902;28;20670;-91
2022/09/05 01:24:16;;;;;;;3.20;2.17;;;16.10;67.80;;;;;;4996685;28;20161;-91
2022/09/05 01:27:30;;;;;;;10.57;2.50;;;16.10;67.90;;;;;;4996445;28;20209;-91
2022/09/05 01:30:08;;;;;;;3.63;2.40;;;16.10;67.90;;;;;;4945721;28;20180;-91
2022/09/05 01:32:59;;;;;;;3.00;1.90;;;16.10;67.90;;;;;;4998902;28;20188;-91
2022/09/05 01:35:35;;;;;;;2.87;2.00;;;16.10;67.90;;;;;;5014107;28;20216;-91
2022/09/05 01:38:41;;;;;;;4.38;2.13;;;16.10;67.90;;;;;;4996762;28;20308;-91
2022/09/05 01:41:48;;;;;;;6.10;2.20;;;16.20;67.80;;;;;;4996610;28;20578;-91
2022/09/05 01:44:40;;;;;;;3.70;2.58;;;16.10;67.80;;;;;;4958807;28;20185;-91
2022/09/05 01:47:25;;;;;;;6.63;2.60;;;16.10;67.90;;;;;;4996895;28;20170;-91
2022/09/05 01:50:16;;;;;;;3.97;2.40;;;16.10;67.90;;;;;;4997143;28;20174;-91
2022/09/05 01:53:00;;;;;;;6.10;2.40;;;16.00;68.00;;;;;;4996477;28;20170;-91
2022/09/05 01:55:44;;;;;;;4.03;2.27;;;16.00;68.10;;;;;;4996282;28;20738;-91
2022/09/05 01:58:09;;;;;;;6.27;2.20;;;16.00;68.10;;;;;;4996132;28;20624;-91
2022/09/05 02:00:47;;;;;;;3.03;2.73;;;16.10;68.00;;;;;;4996017;28;20212;-91
2022/09/05 02:03:42;;;;;;;2.50;2.30;;;16.00;68.10;;;;;;4996302;28;20169;-91
2022/09/05 02:06:33;;;;;;;4.93;2.80;;;16.00;68.10;;;;;;5013777;28;20244;-91
2022/09/05 02:09:21;;;;;;;3.53;2.40;;;16.00;68.20;;;;;;4996507;28;20548;-91
2022/09/05 02:12:05;;;;;;;6.63;2.40;;;16.00;68.20;;;;;;4995833;28;20670;-91
2022/09/05 02:14:40;;;;;;;4.83;2.57;;;15.90;68.40;;;;;;4996070;28;20665;-91
2022/09/05 02:17:19;;;;;;;3.00;2.27;;;15.80;68.70;;;;;;4996081;28;20220;-91
2022/09/05 02:19:54;;;;;;;7.30;2.47;;;15.80;68.90;;;;;;4999666;28;20215;-91
2022/09/05 02:22:32;;;;;;;3.10;2.27;;;15.70;68.90;;;;;;5000149;28;20674;-90
2022/09/05 02:25:11;;;;;;;3.60;2.50;;;15.70;69.00;;;;;;4999842;28;20251;-91
2022/09/05 02:27:49;;;;;;;4.00;2.43;;;15.70;69.10;;;;;;5000091;28;20169;-91
2022/09/05 02:30:16;;;;;;;5.93;2.60;;;15.70;69.10;;;;;;5000073;28;20690;-91
2022/09/05 02:33:05;;;;;;;3.30;2.37;;;15.70;69.20;;;;;;4999793;28;20277;-91
2022/09/05 02:35:31;;;;;;;2.73;2.47;;;15.70;69.40;;;;;;4963835;28;20267;-91
2022/09/05 02:38:27;;;;;;;3.13;2.80;;;15.70;69.50;;;;;;5000746;28;20177;-90
2022/09/05 02:41:14;;;;;;;5.13;2.63;;;15.60;69.50;;;;;;4999539;28;20193;-91
2022/09/05 02:43:53;;;;;;;3.60;2.37;;;15.60;69.50;;;;;;5017500;28;20640;-91
2022/09/05 02:46:45;;;;;;;4.97;2.70;;;15.70;69.50;;;;;;4999901;28;20663;-91
2022/09/05 02:49:26;;;;;;;4.83;2.80;;;15.60;69.50;;;;;;4999859;28;20177;-91
2022/09/05 02:52:02;;;;;;;8.57;3.20;;;15.60;69.70;;;;;;4999587;28;20173;-91
2022/09/05 02:54:32;;;;;;;5.03;3.20;;;15.60;69.80;;;;;;4999550;28;20674;-91
2022/09/05 02:57:19;;;;;;;5.47;2.80;;;15.60;69.80;;;;;;4999566;28;20174;-91
2022/09/05 03:00:00;;;;;;;4.73;2.90;;;15.60;69.80;;;;;;4999506;28;20193;-91
2022/09/05 03:03:02;;;;;;;3.23;2.63;;;15.60;69.70;;;;;;5016807;28;20196;-91
2022/09/05 03:05:57;;;;;;;6.37;2.50;;;15.70;69.70;;;;;;4999219;28;20193;-91
2022/09/05 03:08:48;;;;;;;8.33;2.70;;;15.60;69.60;;;;;;4986502;28;20185;-91
2022/09/05 03:11:37;;;;;;;2.90;2.70;;;15.70;69.50;;;;;;5000316;28;20540;-91
2022/09/05 03:14:41;;;;;;;5.43;2.97;;;15.70;69.50;;;;;;4999229;28;20174;-91
2022/09/05 03:17:43;;;;;;;14.30;3.30;;;15.70;69.40;;;;;;4969447;28;20235;-91
2022/09/05 03:20:35;;;;;;;6.17;2.77;;;15.70;69.40;;;;;;4999245;28;20639;-91
2022/09/05 03:23:29;;;;;;;6.33;2.83;;;15.70;69.40;;;;;;4999242;28;20185;-91
2022/09/05 03:26:27;;;;;;;3.43;2.70;;;15.70;69.30;;;;;;5053548;23;20754;-92
2022/09/05 03:28:56;;;;;;;3.70;3.13;;;15.70;69.30;;;;;;5000016;28;20174;-90
2022/09/05 03:31:40;;;;;;;5.33;2.63;;;15.70;69.30;;;;;;4998524;28;20190;-94
2022/09/05 03:34:08;;;;;;;8.87;2.93;;;15.70;69.30;;;;;;4999721;28;20185;-91
2022/09/05 03:36:46;;;;;;;4.97;3.27;;;15.70;69.30;;;;;;4999011;28;20288;-92
2022/09/05 03:39:17;;;;;;;4.60;2.63;;;15.70;69.40;;;;;;4999657;28;20620;-91
2022/09/05 03:41:54;;;;;;;3.23;2.60;;;15.70;69.30;;;;;;4999636;28;20197;-92
2022/09/05 03:44:48;;;;;;;4.70;2.67;;;15.60;69.30;;;;;;5000102;28;20169;-91
2022/09/05 03:47:33;;;;;;;5.87;2.70;;;15.60;69.30;;;;;;5000482;28;20198;-91
2022/09/05 03:50:16;;;;;;;5.23;2.70;;;15.60;69.20;;;;;;5001588;28;20173;-92
2022/09/05 03:53:02;;;;;;;4.60;3.70;;;15.70;69.00;;;;;;4984041;28;20239;-91
2022/09/05 03:55:34;;;;;;;5.03;3.00;;;15.70;69.00;;;;;;5000016;28;20232;-92
2022/09/05 03:58:21;;;;;;;4.90;2.70;;;15.70;69.00;;;;;;4999382;28;20189;-94
2022/09/05 04:01:02;;;;;;;3.60;3.10;;;15.60;69.10;;;;;;4999621;28;20232;-91
2022/09/05 04:03:37;;;;;;;4.53;2.80;;;15.60;69.20;;;;;;5000535;28;20173;-91
2022/09/05 04:06:19;;;;;;;4.77;2.87;;;15.60;69.30;;;;;;4999865;28;20201;-93
2022/09/05 04:09:12;;;;;;;6.03;3.07;;;15.60;69.40;;;;;;5000484;28;20170;-94
2022/09/05 04:11:48;;;;;;;6.90;2.70;;;15.60;69.30;;;;;;5017991;28;20166;-92
2022/09/05 04:14:27;;;;;;;7.63;3.40;;;15.50;69.50;;;;;;5018230;28;20249;-93
2022/09/05 04:17:02;;;;;;;3.23;2.80;;;15.50;69.50;;;;;;5001226;28;20225;-93
2022/09/05 04:19:42;;;;;;;6.30;3.30;;;15.50;69.60;;;;;;5000023;28;20588;-92
2022/09/05 04:22:22;;;;;;;9.93;2.97;;;15.40;69.70;;;;;;4999542;28;20296;-92
2022/09/05 04:24:52;;;;;;;3.77;3.17;;;15.40;69.80;;;;;;4999738;28;20216;-92
2022/09/05 04:27:23;;;;;;;6.47;3.23;;;15.40;69.90;;;;;;4999717;28;20287;-93
2022/09/05 04:30:14;;;;;;;5.67;2.87;;;15.30;69.90;;;;;;5000151;28;20359;-92
2022/09/05 04:33:17;;;;;;;6.33;3.17;;;15.40;69.90;;;;;;4998842;28;20173;-92
2022/09/05 04:36:06;;;;;;;7.47;3.40;;;15.40;69.80;;;;;;5000290;28;20284;-93
2022/09/05 04:38:40;;;;;;;4.37;3.20;;;15.30;70.00;;;;;;4998439;28;20208;-93
2022/09/05 04:41:10;;;;;;;5.17;3.07;;;15.40;70.00;;;;;;4997588;28;20197;-92
2022/09/05 04:43:40;;;;;;;4.33;2.97;;;15.30;70.10;;;;;;4998063;28;20173;-93
2022/09/05 04:46:24;;;;;;;5.50;3.23;;;15.40;69.90;;;;;;4998428;28;20710;-92
2022/09/05 04:49:05;;;;;;;3.97;3.17;;;15.40;69.90;;;;;;4997777;28;20543;-93
2022/09/05 04:51:48;;;;;;;7.00;3.47;;;15.40;69.90;;;;;;4997764;28;20173;-92
2022/09/05 04:54:30;;;;;;;8.00;3.50;;;15.40;69.90;;;;;;4998653;28;20177;-92
2022/09/05 04:57:10;;;;;;;4.40;2.90;;;15.40;70.00;;;;;;4997562;28;20579;-93
2022/09/05 04:59:55;;;;;;;9.20;3.70;;;15.40;70.00;;;;;;4997796;28;20613;-93
2022/09/05 05:02:43;;;;;;;4.70;3.47;;;15.50;70.00;;;;;;4997457;28;20193;-94
2022/09/05 05:05:23;;;;;;;4.23;3.50;;;15.50;69.90;;;;;;4997373;28;20161;-92
2022/09/05 05:07:53;;;;;;;3.80;3.17;;;15.60;69.90;;;;;;4998753;28;20161;-91
2022/09/05 05:11:02;;;;;;;3.93;3.27;;;15.60;69.70;;;;;;5001296;28;20177;-92
2022/09/05 05:13:35;;;;;;;4.97;3.53;;;15.80;69.40;;;;;;4920449;29;20271;-90
2022/09/05 05:16:11;;;;;;;10.17;3.07;;;15.80;69.20;;;;;;4989366;28;20240;-91
2022/09/05 05:18:54;;;;;;;6.50;3.70;;;15.90;69.20;;;;;;4999824;28;20168;-93
2022/09/05 05:21:23;;;;;;;5.80;3.23;;;15.90;68.90;;;;;;5000598;28;20232;-92
2022/09/05 05:24:07;;;;;;;3.33;3.03;;;16.00;68.60;;;;;;5004549;28;20264;-91
2022/09/05 05:26:39;;;;;;;7.30;3.60;;;16.20;68.30;;;;;;5001035;28;20232;-92
2022/09/05 05:29:11;;;;;;;6.57;3.40;;;16.10;68.30;;;;;;5009322;28;20181;-94
2022/09/05 05:31:44;;;;;;;7.47;3.20;;;16.20;68.10;;;;;;5004826;28;20162;-94
2022/09/05 05:34:22;;;;;;;11.67;3.63;;;16.30;68.00;;;;;;5005116;28;20166;-92
2022/09/05 05:36:53;;;;;;;4.00;3.33;;;16.30;67.60;;;;;;4999475;28;20705;-93
2022/09/05 05:39:25;;;;;;;11.02;3.45;;;16.40;67.50;;;;;;4998877;28;20205;-92
2022/09/05 05:41:55;;;;;;;7.90;3.35;;;16.50;67.50;;;;;;5000790;28;20201;-93
2022/09/05 05:44:31;;;;;;;4.65;3.25;;;16.50;67.30;;;;;;4998660;28;20177;-93
2022/09/05 05:47:10;;;;;;;5.93;3.50;;;16.60;66.90;;;;;;4996658;28;20232;-93
2022/09/05 05:50:12;;;;;;;4.47;3.30;;;16.70;67.20;;;;;;4997360;28;20201;-92
2022/09/05 05:52:56;;;;;;;12.65;4.50;;;16.70;67.10;;;;;;4997570;28;20169;-92
2022/09/05 05:55:57;;;;;;;10.20;3.58;;;16.70;66.80;;;;;;4998945;28;20205;-93
2022/09/05 05:58:56;;;;;;;5.60;3.40;;;16.80;66.60;;;;;;5002705;28;20174;-91
2022/09/05 06:02:04;;;;;;;3.75;3.03;;;16.80;66.50;;;;;;4998688;28;20539;-92
2022/09/05 06:04:47;;;;;;;9.15;3.38;;;16.80;66.80;;;;;;4998203;28;20162;-91
2022/09/05 06:07:50;;;;;;;6.80;3.30;;;16.90;66.70;;;;;;4997727;28;20189;-92
2022/09/05 06:10:32;;;;;;;8.32;3.47;;;17.00;66.40;;;;;;4997571;28;20158;-90
2022/09/05 06:13:19;;;;;;;8.95;3.40;;;17.00;66.40;;;;;;4997516;28;20224;-92
2022/09/05 06:16:38;;;;;;;4.80;3.92;;;17.00;66.60;;;;;;4999247;28;20189;-92
2022/09/05 06:19:39;;;;;;;5.25;3.28;;;17.20;66.20;;;;;;4997630;28;20158;-92
2022/09/05 06:22:23;;;;;;;9.13;3.72;;;17.20;65.80;;;;;;4997788;28;20193;-92
2022/09/05 06:25:09;;;;;;;4.63;3.45;;;17.30;65.80;;;;;;4997894;28;20610;-92
2022/09/05 06:27:34;;;;;;;7.13;3.50;;;17.40;66.10;;;;;;4996675;28;20195;-91
2022/09/05 06:30:08;;;;;;;7.95;3.33;;;17.40;65.90;;;;;;4997957;28;20723;-89
2022/09/05 06:33:04;;;;;;;7.57;3.88;;;17.50;65.70;;;;;;4995886;28;20173;-90
2022/09/05 06:35:42;;;;;;;3.78;3.22;;;17.50;65.90;;;;;;4995840;28;20205;-89
2022/09/05 06:38:25;;;;;;;4.50;3.15;;;17.60;65.80;;;;;;4996600;28;20181;-90
2022/09/05 06:41:33;;;;;;;5.70;3.53;;;17.60;65.80;;;;;;5013971;28;20189;-90
2022/09/05 06:44:30;;;;;;;6.07;3.63;;;17.60;65.90;;;;;;4996014;28;20174;-91
2022/09/05 06:46:58;;;;;;;8.15;3.50;;;17.70;65.80;;;;;;4996069;28;20192;-90
2022/09/05 06:49:46;;;;;;;6.82;3.50;;;17.70;66.10;;;;;;5014355;28;20220;-91
2022/09/05 06:52:40;;;;;;;4.63;3.42;;;17.70;66.10;;;;;;5003123;28;20640;-91
2022/09/05 06:55:36;;;;;;;7.63;3.55;;;17.70;65.80;;;;;;4996366;28;20232;-91
2022/09/05 06:58:41;;;;;;;8.70;3.15;;;17.70;65.80;;;;;;4995990;28;20174;-92
2022/09/05 07:01:08;;;;;;;4.40;3.05;;;17.80;65.80;;;;;;4996088;28;20204;-91
2022/09/05 07:03:45;;;;;;;6.80;3.58;;;17.80;65.80;;;;;;4999518;28;20652;-93
2022/09/05 07:06:26;;;;;;;5.30;4.00;;;17.80;66.00;;;;;;5004944;28;20193;-92
2022/09/05 07:09:16;;;;;;;13.32;3.78;;;17.80;66.20;;;;;;5001081;28;20632;-91
2022/09/05 07:12:17;;;;;;;4.65;2.90;;;17.80;65.90;;;;;;5001587;28;20173;-91
2022/09/05 07:15:10;;;;;;;6.00;3.20;;;17.90;65.50;;;;;;5000408;28;20665;-92
2022/09/05 07:18:00;;;;;;;11.57;3.83;;;18.10;65.80;;;;;;5001260;28;20593;-92
2022/09/05 07:20:34;;;;;;;6.72;3.33;;;18.20;66.10;;;;;;5000459;28;20549;-92
2022/09/05 07:23:39;;;;;;;5.78;3.58;;;18.30;65.60;;;;;;5000443;28;20173;-91
2022/09/05 07:26:08;;;;;;;6.18;3.47;;;18.50;65.20;;;;;;5000990;28;20217;-92
2022/09/05 07:28:42;;;;;;;5.45;3.20;;;18.70;64.70;;;;;;5001808;28;20174;-90
2022/09/05 07:31:15;;;;;;;6.95;3.75;;;18.80;64.10;;;;;;5004899;28;20173;-89
2022/09/05 07:33:44;;;;;;;5.30;3.33;;;18.90;63.80;;;;;;4999097;28;20596;-90
2022/09/05 07:36:30;;;;;;;8.35;3.20;;;19.00;62.90;;;;;;4999029;28;20211;-88
2022/09/05 07:38:59;;;;;;;8.00;3.92;;;19.00;63.00;;;;;;4999939;28;20205;-92
2022/09/05 07:41:30;;;;;;;5.68;3.55;;;19.10;62.70;;;;;;4987858;28;20268;-92
2022/09/05 07:44:23;;;;;;;4.93;3.58;;;19.20;62.90;;;;;;5000080;28;20181;-90
2022/09/05 07:47:22;;;;;;;6.05;4.43;;;19.20;62.20;;;;;;5016533;28;20190;-89
2022/09/05 07:49:49;;;;;;;9.80;3.72;;;19.30;62.90;;;;;;4981906;28;20646;-89
2022/09/05 07:52:19;;;;;;;4.80;3.67;;;19.50;62.30;;;;;;4999725;28;20185;-90
2022/09/05 07:54:47;;;;;;;6.85;3.08;;;19.50;62.80;;;;;;4998808;28;20272;-90
2022/09/05 07:57:22;;;;;;;6.50;3.15;;;19.50;61.80;;;;;;4999432;28;20240;-89
2022/09/05 07:59:53;;;;;;;5.35;3.20;;;19.60;62.30;;;;;;4999709;28;20177;-90
2022/09/05 08:02:19;;;;;;;5.45;3.25;;;19.70;61.80;;;;;;4999041;28;20244;-89
2022/09/05 08:04:45;;;;;;;4.28;3.53;;;19.60;61.50;;;;;;4998987;28;20177;-89
2022/09/05 08:07:14;;;;;;;5.57;2.85;;;19.60;61.50;;;;;;4998361;28;20240;-89
2022/09/05 08:09:44;;;;;;;5.70;3.40;;;19.70;62.10;;;;;;5015851;28;20592;-89
2022/09/05 08:12:25;;;;;;;8.88;3.30;;;19.70;62.00;;;;;;4998439;28;20208;-89
2022/09/05 08:15:21;;;;;;;10.27;3.05;;;19.80;60.80;;;;;;4998328;28;20170;-89
2022/09/05 08:18:31;;;;;;;8.90;2.72;;;19.90;61.00;;;;;;4998037;28;20655;-89
2022/09/05 08:21:06;;;;;;;6.32;3.28;;;19.90;61.10;;;;;;4936253;29;20222;-89
2022/09/05 08:23:52;;;;;;;5.05;3.25;;;20.00;61.00;;;;;;4921067;29;20176;-90
2022/09/05 08:26:28;;;;;;;4.97;2.78;;;20.10;60.70;;;;;;4975875;28;20227;-92
2022/09/05 08:29:19;;;;;;;5.32;3.08;;;20.30;61.00;;;;;;4998688;28;20185;-89
2022/09/05 08:32:07;;;;;;;5.25;3.13;;;20.40;60.00;;;;;;4997981;28;20545;-90
2022/09/05 08:34:32;;;;;;;9.20;4.43;;;20.40;59.60;;;;;;5016319;28;20150;-89
2022/09/05 08:36:59;;;;;;;4.82;2.92;;;20.60;59.20;;;;;;5015629;28;20213;-89
2022/09/05 08:39:28;;;;;;;10.38;2.97;;;20.80;58.90;;;;;;5015398;28;20180;-89
2022/09/05 08:41:53;;;;;;;6.00;2.60;;;20.80;58.70;;;;;;4998059;28;20204;-88
2022/09/05 08:44:34;;;;;;;2.90;2.55;;;20.90;59.40;;;;;;5016222;28;20698;-89
2022/09/05 08:47:24;;;;;;;4.88;2.70;;;21.00;58.20;;;;;;4997387;28;20233;-90
2022/09/05 08:50:23;;;;;;;3.83;3.17;;;21.10;58.10;;;;;;4997424;28;20257;-90
2022/09/05 08:53:01;;;;;;;6.40;3.30;;;21.20;57.60;;;;;;4982944;28;20711;-89
2022/09/05 08:55:43;;;;;;;8.55;2.90;;;21.30;57.90;;;;;;4997417;28;20271;-90
2022/09/05 08:58:14;;;;;;;9.88;3.00;;;21.40;57.30;;;;;;4997369;28;20166;-89
2022/09/05 09:00:46;;;;;;;5.97;2.88;;;21.50;57.20;;;;;;4997073;28;20224;-90
2022/09/05 09:03:21;;;;;;;6.45;3.13;;;21.50;56.90;;;;;;4997130;28;20173;-90
2022/09/05 09:05:53;;;;;;;5.55;2.92;;;21.50;57.00;;;;;;4997168;28;20683;-89
2022/09/05 09:08:33;;;;;;;18.13;4.18;;;21.60;56.30;;;;;;4996969;28;20301;-89
2022/09/05 09:11:33;;;;;;;8.45;2.70;;;21.70;57.70;;;;;;4997670;28;20175;-89
2022/09/05 09:14:32;;;;;;;9.32;3.20;;;21.80;56.20;;;;;;4929301;28;20183;-89
2022/09/05 09:17:05;;;;;;;4.40;2.78;;;22.10;56.30;;;;;;4996863;28;20205;-90
2022/09/05 09:20:05;;;;;;;34.78;4.68;;;22.20;56.00;;;;;;4998053;28;20268;-90
2022/09/05 09:22:37;;;;;;;4.25;2.63;;;22.30;55.70;;;;;;4996631;28;20197;-89
2022/09/05 09:25:19;;;;;;;9.30;3.05;;;22.40;55.80;;;;;;4996545;28;20184;-89
2022/09/05 09:28:03;;;;;;;6.03;2.85;;;22.70;54.80;;;;;;4995876;28;20193;-90
2022/09/05 09:30:32;;;;;;;6.43;2.45;;;22.80;54.30;;;;;;4996898;28;20193;-90
2022/09/05 09:33:03;;;;;;;2.97;2.33;;;22.90;53.70;;;;;;5014279;28;20257;-90
2022/09/05 09:35:51;;;;;;;11.05;2.72;;;23.00;53.90;;;;;;4996543;28;20200;-90
2022/09/05 09:38:38;;;;;;;4.75;2.78;;;22.90;53.60;;;;;;4997335;28;20252;-89
2022/09/05 09:41:35;;;;;;;6.40;2.92;;;23.10;53.60;;;;;;4996451;28;20197;-90
2022/09/05 09:44:24;;;;;;;4.03;2.60;;;23.20;52.80;;;;;;5014148;28;20154;-90
2022/09/05 09:46:51;;;;;;;9.13;2.58;;;23.40;52.30;;;;;;4996356;28;20201;-89
2022/09/05 09:49:43;;;;;;;4.20;2.67;;;23.50;52.30;;;;;;4996416;28;20173;-89
2022/09/05 09:52:26;;;;;;;7.03;2.55;;;23.50;51.70;;;;;;5014253;28;20165;-89
2022/09/05 09:55:29;;;;;;;6.60;2.80;;;23.70;53.00;;;;;;4996401;28;20643;-90
2022/09/05 09:58:28;;;;;;;5.47;2.63;;;23.70;51.20;;;;;;4996516;28;20212;-89
2022/09/05 10:01:24;;;;;;;3.70;2.33;;;23.70;51.80;;;;;;4985970;28;20189;-89
2022/09/05 10:04:11;;;;;;;3.92;2.63;;;23.70;51.20;;;;;;4997114;28;20173;-90
2022/09/05 10:06:46;;;;;;;6.05;2.80;;;23.70;51.20;;;;;;4996801;28;20200;-89
2022/09/05 10:09:31;;;;;;;3.58;2.55;;;23.80;49.90;;;;;;5013967;28;20161;-90
2022/09/05 10:12:16;;;;;;;5.78;2.70;;;23.90;50.10;;;;;;5013866;28;20620;-90
2022/09/05 10:15:02;;;;;;;3.85;2.70;;;23.90;50.20;;;;;;5014763;28;20165;-90
2022/09/05 10:17:53;;;;;;;3.45;2.20;;;24.00;50.10;;;;;;4999571;28;20166;-90
2022/09/05 10:20:38;;;;;;;4.45;2.53;;;24.10;50.00;;;;;;5014622;28;20624;-89
2022/09/05 10:23:29;;;;;;;7.75;2.95;;;24.20;49.30;;;;;;4996665;28;20165;-90
2022/09/05 10:26:03;;;;;;;4.20;2.70;;;24.20;49.30;;;;;;5015361;28;20215;-89
2022/09/05 10:28:56;;;;;;;3.70;2.85;;;24.30;49.90;;;;;;5015088;28;20153;-88
2022/09/05 10:31:49;;;;;;;5.20;2.67;;;24.30;49.50;;;;;;4996169;28;20173;-87
2022/09/05 10:34:21;;;;;;;15.10;2.70;;;24.50;49.20;;;;;;4982759;28;20223;-89
2022/09/05 10:36:53;;;;;;;6.50;2.67;;;24.60;48.80;;;;;;4996684;28;20224;-89
2022/09/05 10:39:31;;;;;;;5.20;2.97;;;24.70;49.00;;;;;;4997849;28;20205;-89
2022/09/05 10:42:14;;;;;;;4.53;3.30;;;24.80;48.50;;;;;;5017759;28;20189;-88
2022/09/05 10:45:13;;;;;;;4.47;2.75;;;24.80;47.50;;;;;;5000469;28;20662;-89
2022/09/05 10:48:00;;;;;;;5.00;2.80;;;24.70;47.60;;;;;;5000017;28;20177;-89
2022/09/05 10:50:34;;;;;;;6.72;2.63;;;24.80;47.50;;;;;;5000523;28;20164;-89
2022/09/05 10:53:25;;;;;;;6.03;2.78;;;24.90;47.80;;;;;;5000971;28;20174;-90
2022/09/05 10:56:06;;;;;;;6.00;2.67;;;25.20;47.20;;;;;;5001223;28;20200;-88
2022/09/05 10:58:47;;;;;;;12.30;2.83;;;25.10;47.60;;;;;;5001653;28;20177;-90
2022/09/05 11:01:51;;;;;;;3.25;2.95;;;25.20;46.40;;;;;;5001232;28;20251;-89
2022/09/05 11:04:20;;;;;;;4.53;3.13;;;25.00;46.90;;;;;;4922954;29;20183;-88
2022/09/05 11:06:48;;;;;;;5.32;3.20;;;25.10;47.00;;;;;;4939200;29;20206;-88
2022/09/05 11:09:28;;;;;;;7.82;3.10;;;25.20;47.10;;;;;;4962205;28;20177;-89
2022/09/05 11:12:14;;;;;;;5.57;3.00;;;25.20;48.10;;;;;;5000121;28;20170;-89
2022/09/05 11:14:40;;;;;;;2.78;2.53;;;25.00;46.80;;;;;;5017774;28;20161;-89
2022/09/05 11:17:30;;;;;;;4.38;2.70;;;24.70;48.10;;;;;;5000466;28;20204;-89
2022/09/05 11:20:32;;;;;;;3.13;2.72;;;24.50;48.70;;;;;;5017845;28;20157;-89
2022/09/05 11:23:14;;;;;;;5.50;3.05;;;24.30;48.30;;;;;;4999962;28;20196;-87
2022/09/05 11:25:40;;;;;;;3.53;2.83;;;24.10;48.60;;;;;;5000578;28;20209;-90
2022/09/05 11:28:17;;;;;;;8.23;3.33;;;23.80;49.90;;;;;;5000210;28;20177;-88
2022/09/05 11:30:50;;;;;;;6.65;2.97;;;23.70;50.10;;;;;;5000606;28;20165;-88
2022/09/05 11:33:45;;;;;;;5.22;2.92;;;23.60;50.50;;;;;;5017475;28;20568;-90
2022/09/05 11:36:23;;;;;;;4.25;3.00;;;23.50;50.80;;;;;;5000028;28;20627;-89
2022/09/05 11:39:15;;;;;;;3.78;2.45;;;23.30;51.10;;;;;;5000134;28;20638;-89
2022/09/05 11:41:58;;;;;;;5.88;2.95;;;23.20;50.90;;;;;;5000299;28;20197;-91
2022/09/05 11:44:27;;;;;;;6.22;3.10;;;23.10;51.40;;;;;;4999711;28;20157;-90
2022/09/05 11:47:10;;;;;;;11.60;3.22;;;23.10;51.60;;;;;;4999452;28;20200;-90
2022/09/05 11:50:14;;;;;;;4.57;2.75;;;23.00;51.80;;;;;;4999968;28;20564;-90
2022/09/05 11:52:51;;;;;;;3.95;3.10;;;23.00;52.50;;;;;;4999467;28;20629;-89
2022/09/05 11:55:24;;;;;;;6.03;2.75;;;23.00;52.50;;;;;;4999350;28;20578;-89
2022/09/05 11:58:11;;;;;;;4.45;2.78;;;23.00;52.30;;;;;;4999447;28;20176;-89
2022/09/05 12:01:26;;;;;;;3.10;2.80;;;23.00;51.80;;;;;;4998891;28;20252;-90
2022/09/05 12:04:19;;;;;;;4.57;2.60;;;22.90;51.80;;;;;;4999472;28;20197;-89
2022/09/05 12:07:07;;;;;;;7.35;2.88;;;22.90;52.30;;;;;;4999215;28;20576;-89
2022/09/05 12:09:49;;;;;;;5.03;3.00;;;22.90;52.70;;;;;;5016592;28;20227;-90
2022/09/05 12:12:34;;;;;;;7.28;3.20;;;23.00;52.70;;;;;;4998736;28;20158;-90
2022/09/05 12:15:15;;;;;;;4.30;2.53;;;22.90;52.80;;;;;;4998584;28;20636;-89
2022/09/05 12:17:47;;;;;;;3.58;2.70;;;23.00;52.50;;;;;;4998932;28;20548;-89
2022/09/05 12:20:34;;;;;;;8.73;2.70;;;22.90;52.80;;;;;;4999002;28;20693;-89
2022/09/05 12:23:45;;;;;;;3.15;2.75;;;22.90;53.00;;;;;;4998923;28;20204;-89
2022/09/05 12:26:33;;;;;;;2.95;2.45;;;22.90;53.20;;;;;;4998675;28;20702;-89
2022/09/05 12:29:08;;;;;;;3.08;2.42;;;22.90;53.00;;;;;;5016261;28;20165;-89
2022/09/05 12:31:37;;;;;;;6.20;2.65;;;22.80;52.50;;;;;;4998563;28;20650;-89
2022/09/05 12:34:08;;;;;;;5.28;2.50;;;22.80;52.60;;;;;;5016287;28;20656;-89
2022/09/05 12:36:49;;;;;;;4.80;2.80;;;22.80;52.80;;;;;;5016387;28;20675;-89
2022/09/05 12:39:36;;;;;;;10.57;3.10;;;22.80;53.20;;;;;;5015878;28;20177;-89
2022/09/05 12:42:24;;;;;;;15.05;2.90;;;22.60;57.80;;;;;;4998423;28;20197;-91
2022/09/05 12:45:08;;;;;;;12.40;3.05;;;22.30;61.60;;;;;;5015385;28;20189;-91
2022/09/05 12:48:06;;;;;;;13.25;4.13;;;22.00;62.20;;;;;;4998713;28;20687;-90
2022/09/05 12:50:53;;;;;;;6.60;3.67;;;21.60;65.30;;;;;;5016640;28;20166;-90
2022/09/05 12:53:19;;;;;;;6.20;2.95;;;21.30;68.20;;;;;;4999806;28;20195;-88
2022/09/05 12:55:51;;;;;;;6.20;3.05;;;21.10;69.40;;;;;;5001667;28;20304;-88
2022/09/05 12:58:28;;;;;;;11.63;3.65;;;20.80;67.90;;;;;;4999976;28;20185;-89
2022/09/05 13:01:12;;;;;;;11.10;3.28;;;20.60;70.70;;;;;;5002219;28;20200;-89
2022/09/05 13:03:46;;;;;;;7.63;3.75;;;20.40;71.40;;;;;;5001329;28;20704;-88
2022/09/05 13:06:21;;;;;;;15.00;4.90;;;20.30;73.10;;;;;;5002310;28;20189;-90
2022/09/05 13:08:50;;;;;;;6.57;3.78;;;20.20;74.30;;;;;;5018871;28;20570;-90
2022/09/05 13:11:20;;;;;;;7.75;4.43;;;20.20;75.10;;;;;;5001325;28;20714;-90
2022/09/05 13:14:06;;;;;;;8.60;4.43;;;20.20;76.90;;;;;;5017329;28;20162;-91
2022/09/05 13:16:38;;;;;;;4.63;3.10;;;20.30;77.40;;;;;;5000740;28;20197;-91
2022/09/05 13:19:08;;;;;;;5.90;3.65;;;20.50;76.10;;;;;;5001099;28;20268;-91
2022/09/05 13:21:39;;;;;;;3.63;3.03;;;20.70;74.50;;;;;;5006076;28;20193;-92
2022/09/05 13:24:20;;;;;;;4.53;2.67;;;20.80;74.80;;;;;;5007642;28;20166;-91
2022/09/05 13:27:16;;;;;;;5.95;3.13;;;20.80;72.00;;;;;;5008565;28;20556;-91
2022/09/05 13:29:52;;;;;;;4.45;3.20;;;20.90;71.70;;;;;;5010756;28;20184;-91
2022/09/05 13:32:18;;;;;;;6.43;3.20;;;21.00;72.00;;;;;;5014989;28;20153;-91
2022/09/05 13:34:46;;;;;;;3.95;3.50;;;21.00;72.00;;;;;;5013094;28;20192;-92
2022/09/05 13:37:25;;;;;;;4.40;3.17;;;20.90;72.30;;;;;;5013453;28;20208;-91
2022/09/05 13:39:53;;;;;;;5.95;3.25;;;21.00;72.60;;;;;;5009137;28;20173;-91
2022/09/05 13:42:26;;;;;;;3.65;3.17;;;20.90;71.10;;;;;;5005558;28;20256;-90
2022/09/05 13:44:56;;;;;;;4.38;2.88;;;20.90;72.10;;;;;;5009509;28;20630;-91
2022/09/05 13:47:29;;;;;;;3.90;3.40;;;20.90;70.80;;;;;;5010992;28;20181;-91
2022/09/05 13:50:12;;;;;;;4.35;3.30;;;20.90;70.00;;;;;;5023788;28;20155;-89
2022/09/05 13:52:48;;;;;;;5.93;3.20;;;20.90;70.10;;;;;;5009463;28;20236;-91
2022/09/05 13:55:38;;;;;;;6.68;3.47;;;20.90;70.50;;;;;;5013838;28;20177;-91
2022/09/05 13:58:06;;;;;;;10.73;3.45;;;20.80;70.90;;;;;;5019076;28;20165;-92
2022/09/05 14:00:36;;;;;;;4.13;3.10;;;20.80;70.00;;;;;;4998423;28;20678;-91
2022/09/05 14:03:33;;;;;;;3.65;3.33;;;20.80;69.90;;;;;;4999738;28;20205;-91
2022/09/05 14:06:14;;;;;;;6.82;3.40;;;20.80;69.50;;;;;;4998023;28;20280;-91